createdAt,value
2019-01-13T00:07:50.324Z,12.97
2019-01-13T00:17:55.495Z,14.30
2019-01-13T00:28:00.638Z,13.90
2019-01-13T00:38:05.779Z,17.70
2019-01-13T00:48:10.919Z,13.53
2019-01-13T00:58:16.066Z,13.50
2019-01-13T01:08:21.223Z,13.53
2019-01-13T01:18:26.724Z,10.97
2019-01-13T01:28:31.865Z,10.13
2019-01-13T01:38:37.024Z,10.83
2019-01-13T01:48:42.157Z,8.10
2019-01-13T01:58:47.365Z,13.77
2019-01-13T04:06:41.118Z,6.80
2019-01-13T04:16:46.276Z,10.43
2019-01-13T04:26:51.405Z,7.27
2019-01-13T04:36:56.547Z,7.30
2019-01-13T04:47:01.681Z,10.40
2019-01-13T04:57:06.815Z,7.57
2019-01-13T05:07:11.970Z,6.60
2019-01-13T05:17:17.161Z,7.90
2019-01-13T05:27:22.288Z,8.40
2019-01-13T05:37:27.429Z,7.13
2019-01-13T05:47:32.574Z,7.07
2019-01-13T05:57:37.685Z,8.17
2019-01-13T06:07:42.842Z,5.90
2019-01-13T06:17:49.560Z,5.97
2019-01-13T06:27:54.696Z,6.67
2019-01-13T06:37:59.834Z,6.87
2019-01-13T06:48:05.020Z,6.83
2019-01-13T06:58:10.149Z,7.70
2019-01-13T07:08:15.285Z,6.33
2019-01-13T07:18:20.434Z,4.80
2019-01-13T07:28:25.562Z,6.90
2019-01-13T07:38:30.818Z,4.57
2019-01-13T07:48:36.920Z,5.60
2019-01-13T07:58:42.045Z,7.17
2019-01-13T08:08:47.175Z,5.73
2019-01-13T08:18:52.700Z,4.13
2019-01-13T08:28:57.832Z,4.77
2019-01-13T08:39:03.895Z,6.10
2019-01-13T08:49:09.077Z,6.10
2019-01-13T08:59:14.212Z,5.30
2019-01-13T09:09:19.715Z,5.13
2019-01-13T09:19:24.914Z,5.47
2019-01-13T09:29:30.046Z,5.30
2019-01-13T09:39:35.176Z,4.50
2019-01-13T09:49:40.640Z,5.97
2019-01-13T09:59:45.951Z,4.97
2019-01-13T10:09:51.292Z,3.67
2019-01-13T10:19:56.647Z,4.93
2019-01-13T10:30:06.988Z,3.87
2019-01-13T10:40:15.273Z,5.73
2019-01-13T10:50:26.181Z,5.43
2019-01-13T11:00:34.232Z,3.90
2019-01-13T11:10:40.164Z,4.77
2019-01-13T11:20:45.416Z,4.00
2019-01-13T11:30:50.528Z,5.30
2019-01-13T11:40:55.663Z,5.10
2019-01-13T11:51:00.789Z,4.90
2019-01-13T12:01:06.951Z,9.83
2019-01-13T12:11:12.106Z,7.93
2019-01-13T12:21:17.265Z,4.90
2019-01-13T12:31:22.473Z,6.27
2019-01-13T12:41:27.607Z,6.20
2019-01-13T12:51:32.818Z,7.17
2019-01-13T13:01:38.024Z,7.10
2019-01-13T13:11:43.595Z,4.23
2019-01-13T13:21:48.845Z,5.50
2019-01-13T13:31:53.996Z,3.80
2019-01-13T13:41:59.159Z,4.23
2019-01-13T13:52:04.341Z,3.73
2019-01-13T14:02:09.593Z,3.60
2019-01-13T14:12:15.267Z,5.07
2019-01-13T14:22:20.458Z,4.73
2019-01-13T14:32:25.693Z,4.97
2019-01-13T14:42:31.016Z,4.77
2019-01-13T14:52:37.115Z,2.77
2019-01-13T15:02:42.266Z,5.10
2019-01-13T15:12:47.528Z,5.53
2019-01-13T15:22:53.045Z,3.83
2019-01-13T15:32:58.638Z,3.47
2019-01-13T15:43:03.918Z,5.40
2019-01-13T15:53:09.048Z,3.90
2019-01-13T16:03:15.798Z,7.20
2019-01-13T16:13:21.036Z,5.37
2019-01-13T16:23:26.355Z,4.90
2019-01-13T16:33:31.478Z,9.07
2019-01-13T16:43:36.736Z,4.10
2019-01-13T16:53:42.277Z,3.57
2019-01-13T17:03:47.413Z,4.47
2019-01-13T17:13:52.599Z,5.83
2019-01-13T17:23:57.829Z,3.43
2019-01-13T17:34:03.283Z,4.37
2019-01-13T17:44:08.664Z,4.87
2019-01-13T17:54:13.906Z,15.67
2019-01-13T18:04:19.075Z,18.40
2019-01-13T18:14:24.637Z,16.03
2019-01-13T18:24:30.141Z,17.03
2019-01-13T18:34:35.881Z,17.50
2019-01-13T18:44:42.720Z,11.37
2019-01-13T18:54:49.924Z,11.23
2019-01-13T19:04:57.376Z,11.90
2019-01-13T19:15:03.133Z,10.23
2019-01-13T19:25:21.020Z,10.10
2019-01-13T19:35:26.194Z,16.10
2019-01-13T19:45:31.457Z,10.73
2019-01-13T19:55:36.683Z,12.40
2019-01-13T20:05:41.894Z,10.20
2019-01-13T20:15:47.148Z,12.13
2019-01-13T20:25:52.405Z,10.67
2019-01-13T20:35:57.559Z,13.30
2019-01-13T20:46:03.887Z,9.47
2019-01-13T20:56:10.027Z,9.90
2019-01-13T21:06:15.599Z,9.23
2019-01-13T21:16:21.564Z,10.33
2019-01-13T21:26:26.756Z,11.60
2019-01-13T21:36:32.062Z,13.97
2019-01-13T21:46:37.351Z,14.53
2019-01-13T21:56:43.579Z,11.93
2019-01-13T22:06:48.760Z,15.00
2019-01-13T22:16:53.986Z,10.53
2019-01-13T22:26:59.356Z,9.47
2019-01-13T22:37:04.504Z,12.43
2019-01-13T22:47:09.669Z,10.07
2019-01-13T22:57:15.167Z,9.20
2019-01-13T23:07:20.357Z,9.80
2019-01-13T23:17:26.113Z,9.00
2019-01-13T23:27:31.284Z,10.70
2019-01-13T23:37:37.286Z,8.37
2019-01-13T23:47:43.165Z,12.33
2019-01-13T23:57:48.330Z,9.50
